Time;durP1;ratioP1;P1;durP2;ratioP2;P2;SDS_P1;SDS_P2;PMS_P1;PMS_P2;Temp;Humidity;BMP_temperature;BMP_pressure;BME280_temperature;BME280_humidity;BME280_pressure;Samples;Min_cycle;Max_cycle;Signal;HPM_P1;HPM_P2
2022/08/07 00:02:10;;;;;;;6.67;1.87;;;15.60;99.90;;;;;;4935472;29;20206;-73
2022/08/07 00:04:57;;;;;;;3.90;2.00;;;15.50;99.90;;;;;;4918674;29;20198;-73
2022/08/07 00:07:24;;;;;;;3.83;1.70;;;15.50;99.90;;;;;;4918744;29;20213;-74
2022/08/07 00:09:53;;;;;;;6.53;1.83;;;15.50;99.90;;;;;;4918947;29;20195;-74
2022/08/07 00:12:42;;;;;;;5.70;2.20;;;15.40;99.90;;;;;;4935641;29;20274;-73
2022/08/07 00:15:27;;;;;;;19.13;3.20;;;15.40;99.90;;;;;;4935878;29;20210;-74
2022/08/07 00:18:16;;;;;;;6.07;2.00;;;15.30;99.90;;;;;;4918296;29;20627;-75
2022/08/07 00:20:57;;;;;;;6.37;2.40;;;15.30;99.90;;;;;;4918388;29;20245;-75
2022/08/07 00:23:33;;;;;;;5.30;2.30;;;15.30;99.90;;;;;;4918680;29;20207;-76
2022/08/07 00:26:02;;;;;;;4.73;2.30;;;15.30;99.90;;;;;;4920775;29;20207;-74
2022/08/07 00:28:56;;;;;;;5.83;2.80;;;15.30;99.90;;;;;;4922384;29;20225;-75
2022/08/07 00:31:24;;;;;;;7.60;2.90;;;15.20;99.90;;;;;;4922117;29;20203;-75
2022/08/07 00:34:04;;;;;;;5.90;2.23;;;15.20;99.90;;;;;;4921614;29;20207;-75
2022/08/07 00:36:35;;;;;;;3.70;2.20;;;15.10;99.90;;;;;;4922009;29;20293;-75
2022/08/07 00:39:08;;;;;;;4.97;2.50;;;15.10;99.90;;;;;;4921666;29;20219;-75
2022/08/07 00:41:56;;;;;;;4.07;2.13;;;15.00;99.90;;;;;;4921648;29;20206;-75
2022/08/07 00:44:31;;;;;;;4.07;2.30;;;15.00;99.90;;;;;;4921270;29;20238;-75
2022/08/07 00:46:59;;;;;;;7.47;3.03;;;14.90;99.90;;;;;;4921781;29;20218;-75
2022/08/07 00:49:27;;;;;;;6.93;2.43;;;14.90;99.90;;;;;;4921540;29;20195;-74
2022/08/07 00:52:15;;;;;;;4.80;2.30;;;14.80;99.90;;;;;;4938820;29;20222;-75
2022/08/07 00:54:46;;;;;;;4.60;2.60;;;14.90;99.90;;;;;;4938363;29;20294;-76
2022/08/07 00:57:24;;;;;;;5.87;2.47;;;14.80;99.90;;;;;;4921570;29;20213;-75
2022/08/07 00:59:52;;;;;;;3.47;2.27;;;14.80;99.90;;;;;;4921727;29;20266;-75
2022/08/07 01:02:24;;;;;;;9.87;3.00;;;14.70;99.90;;;;;;4905660;29;20206;-74
2022/08/07 01:04:56;;;;;;;7.97;2.50;;;14.70;99.90;;;;;;4921167;29;20209;-74
2022/08/07 01:07:26;;;;;;;3.63;2.40;;;14.70;99.90;;;;;;4921228;29;20237;-74
2022/08/07 01:09:55;;;;;;;10.57;2.90;;;14.70;99.90;;;;;;4920970;29;20270;-73
2022/08/07 01:12:36;;;;;;;5.67;2.43;;;14.60;99.90;;;;;;4938118;29;20203;-74
2022/08/07 01:15:05;;;;;;;5.23;2.60;;;14.60;99.90;;;;;;4920949;29;20208;-74
2022/08/07 01:17:37;;;;;;;7.13;2.40;;;14.60;99.90;;;;;;4921134;29;20213;-75
2022/08/07 01:20:08;;;;;;;4.67;2.30;;;14.50;99.90;;;;;;4938300;29;20222;-74
2022/08/07 01:22:43;;;;;;;4.60;2.43;;;14.50;99.90;;;;;;4938205;29;20285;-74
2022/08/07 01:25:27;;;;;;;4.27;2.40;;;14.40;99.90;;;;;;4920988;29;20206;-74
2022/08/07 01:28:15;;;;;;;5.40;2.30;;;14.30;99.90;;;;;;4921039;29;20190;-74
2022/08/07 01:30:43;;;;;;;6.77;2.37;;;14.30;99.90;;;;;;4921092;29;20214;-75
2022/08/07 01:33:11;;;;;;;6.87;2.83;;;14.30;99.90;;;;;;4920720;29;20202;-75
2022/08/07 01:35:38;;;;;;;4.80;2.47;;;14.30;99.90;;;;;;4937742;29;20230;-74
2022/08/07 01:38:21;;;;;;;4.27;2.53;;;14.20;99.90;;;;;;4920833;29;20297;-74
2022/08/07 01:40:58;;;;;;;5.73;2.50;;;14.20;99.90;;;;;;4920861;29;20321;-74
2022/08/07 01:43:27;;;;;;;3.77;2.30;;;14.20;99.90;;;;;;4937323;29;20230;-74
2022/08/07 01:46:04;;;;;;;4.97;2.40;;;14.20;99.90;;;;;;4920926;29;20208;-74
2022/08/07 01:48:34;;;;;;;4.13;2.60;;;14.20;99.90;;;;;;4920746;29;20195;-75
2022/08/07 01:51:11;;;;;;;13.13;3.10;;;14.10;99.90;;;;;;4920475;29;20251;-75
2022/08/07 01:54:01;;;;;;;6.63;2.60;;;14.10;99.90;;;;;;4920217;29;20676;-74
2022/08/07 01:57:01;;;;;;;4.17;2.13;;;14.10;99.90;;;;;;4937462;29;20676;-75
2022/08/07 01:59:45;;;;;;;3.97;2.10;;;14.10;99.90;;;;;;4920736;29;20249;-73
2022/08/07 02:02:20;;;;;;;4.50;2.50;;;14.10;99.90;;;;;;4920276;29;20293;-75
2022/08/07 02:05:51;;;;;;;3.57;2.20;;;14.00;99.90;;;;;;4920412;29;20195;-75
2022/08/07 02:08:28;;;;;;;8.87;2.63;;;14.00;99.90;;;;;;4937227;29;20237;-75
2022/08/07 02:10:58;;;;;;;3.93;2.20;;;13.90;99.90;;;;;;4920381;29;20203;-74
2022/08/07 02:13:27;;;;;;;4.27;2.27;;;14.00;99.90;;;;;;4920068;29;20198;-75
2022/08/07 02:16:17;;;;;;;6.90;2.20;;;14.00;99.90;;;;;;4920553;29;20197;-75
2022/08/07 02:18:48;;;;;;;3.90;2.43;;;14.00;99.90;;;;;;4937258;29;20203;-75
2022/08/07 02:21:18;;;;;;;3.60;2.10;;;13.90;99.90;;;;;;4919877;29;20244;-75
2022/08/07 02:23:46;;;;;;;4.20;2.40;;;13.90;99.90;;;;;;4936929;29;20191;-75
2022/08/07 02:26:17;;;;;;;7.27;2.33;;;13.90;99.90;;;;;;4919822;29;20242;-74
2022/08/07 02:29:03;;;;;;;4.50;2.23;;;13.90;99.90;;;;;;4919843;29;20194;-74
2022/08/07 02:31:31;;;;;;;5.40;2.13;;;13.90;99.90;;;;;;4920023;29;20206;-74
2022/08/07 02:34:00;;;;;;;5.37;2.43;;;13.90;99.90;;;;;;4919400;29;20214;-74
2022/08/07 02:36:39;;;;;;;5.87;2.37;;;13.80;99.90;;;;;;4920005;29;20245;-74
2022/08/07 02:39:09;;;;;;;4.60;2.43;;;13.80;99.90;;;;;;4936774;29;20205;-75
2022/08/07 02:41:56;;;;;;;4.93;2.40;;;13.80;99.90;;;;;;4936505;29;20195;-74
2022/08/07 02:44:28;;;;;;;4.50;2.60;;;13.80;99.90;;;;;;4919400;29;20289;-74
2022/08/07 02:47:04;;;;;;;7.87;2.63;;;13.80;99.90;;;;;;4919189;29;20203;-74
2022/08/07 02:49:31;;;;;;;16.70;4.00;;;13.80;99.90;;;;;;4919924;29;20523;-74
2022/08/07 02:52:24;;;;;;;4.40;2.20;;;13.70;99.90;;;;;;4919310;29;20185;-74
2022/08/07 02:55:01;;;;;;;5.03;2.20;;;13.70;99.90;;;;;;4919386;29;20187;-74
2022/08/07 02:57:30;;;;;;;6.03;2.70;;;13.60;99.90;;;;;;4919605;29;20237;-74
2022/08/07 03:00:04;;;;;;;3.10;2.33;;;13.60;99.90;;;;;;4919205;29;20222;-75
2022/08/07 03:02:40;;;;;;;4.33;2.40;;;13.50;99.90;;;;;;4919305;29;20651;-75
2022/08/07 03:05:21;;;;;;;5.27;2.13;;;13.50;99.90;;;;;;4919127;29;20195;-75
2022/08/07 03:07:51;;;;;;;4.10;2.27;;;13.40;99.90;;;;;;4919323;29;20206;-75
2022/08/07 03:10:35;;;;;;;5.47;2.53;;;13.40;99.90;;;;;;4919169;29;20406;-75
2022/08/07 03:13:16;;;;;;;5.77;2.67;;;13.30;99.90;;;;;;4919455;29;20218;-75
2022/08/07 03:15:46;;;;;;;6.80;3.00;;;13.30;99.90;;;;;;4936098;29;20202;-75
2022/08/07 03:18:23;;;;;;;12.47;2.73;;;13.20;99.90;;;;;;4919501;29;20305;-75
2022/08/07 03:21:04;;;;;;;3.93;2.60;;;13.30;99.90;;;;;;4919091;29;20241;-75
2022/08/07 03:23:37;;;;;;;6.00;2.77;;;13.30;99.90;;;;;;4918960;29;20199;-75
2022/08/07 03:26:27;;;;;;;5.83;2.60;;;13.30;99.90;;;;;;4918806;29;20618;-75
2022/08/07 03:28:56;;;;;;;5.10;2.60;;;13.30;99.90;;;;;;4936288;29;20710;-76
2022/08/07 03:31:25;;;;;;;6.33;2.60;;;13.30;99.90;;;;;;4919385;29;20242;-75
2022/08/07 03:34:13;;;;;;;7.27;2.70;;;13.30;99.90;;;;;;4919185;29;20209;-75
2022/08/07 03:36:50;;;;;;;10.67;3.27;;;13.20;99.90;;;;;;4918789;29;20207;-75
2022/08/07 03:39:19;;;;;;;5.47;2.50;;;13.20;99.90;;;;;;4919034;29;20207;-74
2022/08/07 03:42:06;;;;;;;7.67;2.77;;;13.20;99.90;;;;;;4935700;29;20193;-74
2022/08/07 03:44:36;;;;;;;8.57;3.00;;;13.30;99.90;;;;;;4918708;29;20230;-74
2022/08/07 03:47:05;;;;;;;5.43;2.83;;;13.30;99.90;;;;;;4918827;29;20639;-74
2022/08/07 03:49:42;;;;;;;6.97;2.87;;;13.30;99.90;;;;;;4935558;29;20545;-73
2022/08/07 03:52:22;;;;;;;6.20;2.60;;;13.40;99.90;;;;;;4918860;29;20514;-74
2022/08/07 03:54:55;;;;;;;6.30;2.73;;;13.40;99.90;;;;;;4918804;29;20206;-75
2022/08/07 03:57:34;;;;;;;5.97;2.93;;;13.50;99.90;;;;;;4918989;29;20230;-73
2022/08/07 04:00:21;;;;;;;6.13;3.10;;;13.50;99.90;;;;;;4938007;29;20222;-75
2022/08/07 04:02:58;;;;;;;8.73;3.00;;;13.60;99.90;;;;;;4939417;29;20562;-74
2022/08/07 04:05:29;;;;;;;5.57;3.03;;;13.60;99.90;;;;;;4922500;29;20302;-74
2022/08/07 04:08:10;;;;;;;7.53;3.30;;;13.80;99.90;;;;;;4922746;29;20229;-74
2022/08/07 04:10:38;;;;;;;4.60;2.87;;;13.80;99.90;;;;;;4922272;29;20290;-75
2022/08/07 04:13:12;;;;;;;5.10;3.00;;;13.80;99.90;;;;;;4939378;29;20191;-75
2022/08/07 04:15:42;;;;;;;7.17;2.90;;;13.90;99.90;;;;;;4922312;29;20571;-74
2022/08/07 04:18:13;;;;;;;4.40;2.40;;;13.90;99.90;;;;;;4922308;29;20210;-75
2022/08/07 04:21:00;;;;;;;5.47;2.83;;;14.00;99.90;;;;;;4938765;29;20235;-74
2022/08/07 04:23:31;;;;;;;5.53;2.40;;;14.10;99.90;;;;;;4922111;29;20293;-75
2022/08/07 04:26:18;;;;;;;7.10;2.83;;;14.10;99.90;;;;;;4921999;29;20194;-74
2022/08/07 04:28:47;;;;;;;4.77;2.53;;;14.20;99.90;;;;;;4921922;29;20210;-74
2022/08/07 04:31:16;;;;;;;5.37;2.50;;;14.30;99.90;;;;;;4938913;29;20194;-74
2022/08/07 04:33:46;;;;;;;4.43;2.20;;;14.30;99.90;;;;;;4938425;29;20553;-74
2022/08/07 04:36:22;;;;;;;4.80;2.47;;;14.50;99.90;;;;;;4921547;29;20209;-74
2022/08/07 04:38:52;;;;;;;5.63;2.30;;;14.50;99.90;;;;;;4922109;29;20560;-75
2022/08/07 04:41:19;;;;;;;8.90;3.07;;;14.60;99.90;;;;;;4921774;29;20230;-76
2022/08/07 04:43:55;;;;;;;4.03;1.90;;;14.60;99.90;;;;;;4921389;29;20325;-75
2022/08/07 04:47:12;;;;;;;3.57;2.00;;;14.70;99.90;;;;;;4921686;29;20217;-74
2022/08/07 04:50:25;;;;;;;4.07;1.97;;;14.80;99.90;;;;;;4921566;29;20202;-73
2022/08/07 04:53:05;;;;;;;5.87;2.10;;;14.90;99.90;;;;;;4938366;29;20223;-74
2022/08/07 04:55:58;;;;;;;5.97;2.20;;;15.00;99.90;;;;;;4922035;29;20518;-75
2022/08/07 04:59:05;;;;;;;4.53;1.97;;;15.10;99.90;;;;;;4921204;29;20199;-74
2022/08/07 05:02:13;;;;;;;4.97;2.30;;;15.10;99.90;;;;;;4921111;29;20218;-73
2022/08/07 05:04:57;;;;;;;9.30;2.20;;;15.20;99.90;;;;;;4938325;29;20199;-74
2022/08/07 05:07:35;;;;;;;4.13;1.90;;;15.30;99.90;;;;;;4921333;29;20297;-74
2022/08/07 05:10:23;;;;;;;4.67;1.80;;;15.40;99.90;;;;;;4920977;29;20217;-74
2022/08/07 05:13:00;;;;;;;3.80;1.60;;;15.50;99.90;;;;;;4921034;29;20213;-74
2022/08/07 05:15:51;;;;;;;6.70;2.00;;;15.60;99.90;;;;;;4920868;29;20199;-74
2022/08/07 05:18:24;;;;;;;6.13;1.70;;;15.70;99.90;;;;;;4938025;29;20601;-74
2022/08/07 05:20:55;;;;;;;7.33;2.27;;;15.70;99.90;;;;;;4920720;29;20260;-74
2022/08/07 05:23:37;;;;;;;4.27;1.60;;;15.70;99.90;;;;;;4920982;29;20206;-79
2022/08/07 05:26:07;;;;;;;2.67;1.50;;;15.70;99.90;;;;;;4920804;29;20676;-78
2022/08/07 05:28:46;;;;;;;4.47;2.10;;;15.90;99.90;;;;;;4921000;29;20637;-78
2022/08/07 05:31:17;;;;;;;3.73;1.60;;;16.00;99.90;;;;;;4938004;29;20198;-78
2022/08/07 05:33:48;;;;;;;4.90;1.80;;;16.00;99.90;;;;;;4938034;29;20233;-78
2022/08/07 05:36:32;;;;;;;3.57;1.40;;;16.10;99.90;;;;;;4920890;29;20234;-78
2022/08/07 05:39:02;;;;;;;7.93;2.07;;;16.20;99.90;;;;;;4921328;29;20246;-79
2022/08/07 05:41:50;;;;;;;2.77;1.50;;;16.20;99.90;;;;;;4937629;29;20681;-79
2022/08/07 05:44:32;;;;;;;6.07;1.60;;;16.30;99.90;;;;;;4921243;29;20233;-79
2022/08/07 05:47:00;;;;;;;3.57;1.27;;;16.40;99.90;;;;;;4937899;29;20625;-79
2022/08/07 05:49:48;;;;;;;5.97;1.30;;;16.40;99.90;;;;;;4921153;29;20203;-78
2022/08/07 05:52:17;;;;;;;3.13;1.57;;;16.50;99.90;;;;;;4920588;29;20210;-78
2022/08/07 05:54:46;;;;;;;4.70;1.40;;;16.60;99.90;;;;;;4937911;29;20664;-78
2022/08/07 05:57:23;;;;;;;5.03;1.63;;;16.70;99.90;;;;;;4921036;29;20206;-78
2022/08/07 05:59:59;;;;;;;2.23;1.10;;;16.80;99.90;;;;;;4920485;29;20205;-79
2022/08/07 06:02:30;;;;;;;5.47;1.10;;;16.80;99.90;;;;;;4921022;29;20223;-78
2022/08/07 06:05:08;;;;;;;2.30;1.00;;;16.90;99.90;;;;;;4920484;29;20206;-78
2022/08/07 06:07:36;;;;;;;2.70;0.90;;;16.80;99.90;;;;;;4937690;29;20194;-77
2022/08/07 06:10:24;;;;;;;4.27;1.00;;;17.00;99.90;;;;;;4920309;29;20191;-78
2022/08/07 06:12:51;;;;;;;2.17;1.00;;;16.90;99.90;;;;;;4920413;29;20293;-77
2022/08/07 06:15:21;;;;;;;2.53;1.10;;;17.00;99.90;;;;;;4920440;29;20250;-79
2022/08/07 06:18:07;;;;;;;3.37;1.10;;;17.00;99.90;;;;;;4920408;29;20213;-78
2022/08/07 06:20:39;;;;;;;1.93;1.00;;;17.00;99.90;;;;;;4915932;29;20242;-78
2022/08/07 06:23:26;;;;;;;3.17;0.90;;;17.10;99.90;;;;;;4935293;29;20187;-78
2022/08/07 06:26:14;;;;;;;5.37;1.30;;;17.20;99.90;;;;;;4917917;29;20223;-76
2022/08/07 06:28:55;;;;;;;3.83;1.10;;;17.20;99.90;;;;;;4934378;29;20201;-77
2022/08/07 06:31:25;;;;;;;7.23;1.27;;;17.30;99.90;;;;;;4906497;29;20214;-78
2022/08/07 06:34:12;;;;;;;8.60;1.33;;;17.40;99.90;;;;;;4918964;29;20194;-77
2022/08/07 06:36:40;;;;;;;3.03;0.93;;;17.30;99.90;;;;;;4920202;29;20202;-76
2022/08/07 06:39:09;;;;;;;6.70;0.97;;;17.30;99.90;;;;;;4920231;29;20234;-77
2022/08/07 06:42:07;;;;;;;3.23;1.23;;;17.50;99.90;;;;;;4919514;29;20230;-78
2022/08/07 06:44:37;;;;;;;1.43;0.90;;;17.40;99.90;;;;;;4900580;29;20231;-77
2022/08/07 06:47:05;;;;;;;7.10;1.97;;;17.40;99.90;;;;;;4900674;29;20302;-77
2022/08/07 06:49:39;;;;;;;4.80;1.70;;;17.50;99.90;;;;;;4900973;29;20551;-78
2022/08/07 06:52:26;;;;;;;4.37;1.00;;;17.60;99.90;;;;;;4921324;29;20199;-78
2022/08/07 06:55:10;;;;;;;4.50;1.30;;;17.60;99.90;;;;;;4905006;29;20213;-80
2022/08/07 06:58:00;;;;;;;6.73;1.10;;;17.80;99.90;;;;;;4916006;29;20250;-81
2022/08/07 07:00:32;;;;;;;2.77;1.20;;;17.70;99.90;;;;;;4910212;29;20199;-80
2022/08/07 07:03:00;;;;;;;4.13;0.90;;;17.70;99.90;;;;;;4913371;29;20187;-79
2022/08/07 07:05:37;;;;;;;3.23;0.90;;;17.80;99.90;;;;;;4930586;29;20545;-79
2022/08/07 07:08:26;;;;;;;10.27;1.80;;;17.90;99.90;;;;;;4931832;29;20192;-76
2022/08/07 07:10:54;;;;;;;2.50;0.90;;;18.00;99.90;;;;;;4913995;29;20191;-79
2022/08/07 07:13:48;;;;;;;3.87;1.10;;;18.10;99.90;;;;;;4909266;29;20230;-78
2022/08/07 07:16:34;;;;;;;4.53;1.20;;;18.10;99.90;;;;;;4917288;29;20198;-79
2022/08/07 07:19:20;;;;;;;2.50;1.00;;;18.20;99.90;;;;;;4916703;29;20707;-78
2022/08/07 07:22:08;;;;;;;4.07;0.90;;;18.30;99.90;;;;;;4917090;29;21727;-78
2022/08/07 07:24:56;;;;;;;6.97;1.23;;;18.00;99.90;;;;;;4918524;29;20298;-79
2022/08/07 07:27:47;;;;;;;3.47;1.13;;;18.10;99.90;;;;;;4919344;29;20254;-79
2022/08/07 07:30:34;;;;;;;7.50;1.83;;;18.30;99.90;;;;;;4936827;29;20273;-79
2022/08/07 07:33:07;;;;;;;1.83;0.90;;;18.40;99.90;;;;;;4935727;29;20190;-82
2022/08/07 07:35:41;;;;;;;3.17;1.00;;;18.50;99.90;;;;;;4935971;29;20301;-80
2022/08/07 07:38:29;;;;;;;2.63;1.00;;;18.50;99.90;;;;;;4918791;29;20191;-79
2022/08/07 07:41:01;;;;;;;2.93;0.80;;;18.50;99.90;;;;;;4919116;29;20242;-79
2022/08/07 07:43:31;;;;;;;1.33;0.80;;;18.50;99.90;;;;;;4935972;29;20234;-79
2022/08/07 07:46:21;;;;;;;4.07;0.97;;;18.60;99.90;;;;;;4918540;29;20198;-79
2022/08/07 07:49:11;;;;;;;1.73;0.90;;;18.70;99.90;;;;;;4935615;29;20190;-79
2022/08/07 07:51:59;;;;;;;7.20;1.63;;;18.80;99.90;;;;;;4935629;29;20194;-80
2022/08/07 07:54:30;;;;;;;6.93;1.30;;;18.80;99.90;;;;;;4903405;29;20380;-79
2022/08/07 07:57:00;;;;;;;3.43;1.10;;;18.90;99.90;;;;;;4918220;29;20546;-80
2022/08/07 07:59:29;;;;;;;2.23;0.90;;;19.00;99.90;;;;;;4918500;29;20583;-81
2022/08/07 08:02:18;;;;;;;2.10;0.97;;;19.00;99.90;;;;;;4918169;29;20319;-81
2022/08/07 08:05:06;;;;;;;1.47;0.93;;;19.10;99.90;;;;;;4918514;29;20198;-81
2022/08/07 08:07:41;;;;;;;2.10;0.97;;;19.10;99.90;;;;;;4918807;29;20210;-84
2022/08/07 08:10:27;;;;;;;2.60;1.00;;;19.10;99.90;;;;;;4918536;29;20195;-83
2022/08/07 08:13:07;;;;;;;3.47;1.00;;;19.20;99.90;;;;;;4935468;29;20207;-80
2022/08/07 08:15:42;;;;;;;4.80;1.03;;;19.30;99.90;;;;;;4914328;29;20672;-80
2022/08/07 08:18:28;;;;;;;6.57;1.10;;;19.60;99.90;;;;;;4915180;29;20199;-78
2022/08/07 08:20:59;;;;;;;2.93;0.77;;;20.40;99.90;;;;;;4911831;29;20681;-81
2022/08/07 08:29:53;;;;;;;1.88;0.90;;;24.10;99.90;;;;;;4829050;29;20202;-84
2022/08/07 08:32:28;;;;;;;3.78;1.10;;;24.00;99.90;;;;;;4828222;29;20212;-74
2022/08/07 08:35:08;;;;;;;2.25;0.90;;;24.80;99.90;;;;;;4830184;29;20385;-79
2022/08/07 08:37:37;;;;;;;2.53;0.90;;;25.20;99.40;;;;;;4825967;29;20262;-77
2022/08/07 08:40:31;;;;;;;1.73;1.10;;;24.50;97.70;;;;;;4821581;29;20210;-76
2022/08/07 08:43:13;;;;;;;2.90;0.95;;;24.40;96.50;;;;;;4805813;29;20270;-77
2022/08/07 08:46:03;;;;;;;3.15;1.20;;;24.50;96.20;;;;;;4822001;29;20271;-76
2022/08/07 08:48:37;;;;;;;3.65;1.10;;;24.50;96.70;;;;;;4824799;29;20207;-79
2022/08/07 08:51:17;;;;;;;1.30;0.95;;;25.10;96.50;;;;;;4824800;29;20294;-80
2022/08/07 08:54:22;;;;;;;7.70;1.40;;;25.70;93.30;;;;;;4824440;29;20234;-79
2022/08/07 08:56:52;;;;;;;4.68;1.00;;;25.80;90.90;;;;;;4824536;29;20293;-81
2022/08/07 08:59:51;;;;;;;2.53;1.00;;;26.10;88.80;;;;;;4824413;29;20237;-80
2022/08/07 09:02:36;;;;;;;1.73;0.90;;;26.50;84.80;;;;;;4863545;29;20217;-78
2022/08/07 09:05:19;;;;;;;1.42;0.63;;;26.30;82.60;;;;;;4921251;29;20301;-82
2022/08/07 09:08:10;;;;;;;2.35;1.00;;;26.70;81.20;;;;;;4920681;29;20202;-80
2022/08/07 09:10:55;;;;;;;3.58;1.10;;;27.10;83.10;;;;;;4902350;29;20203;-80
2022/08/07 09:13:49;;;;;;;2.65;0.85;;;27.30;77.10;;;;;;4907230;29;20560;-77
2022/08/07 09:16:38;;;;;;;1.42;0.80;;;27.50;75.60;;;;;;4915811;29;20212;-79
2022/08/07 09:19:39;;;;;;;3.95;1.23;;;27.30;73.00;;;;;;4920609;29;20199;-73
2022/08/07 09:22:56;;;;;;;3.40;0.95;;;27.20;74.50;;;;;;4918604;29;20237;-76
2022/08/07 09:26:20;;;;;;;1.85;1.00;;;27.00;75.80;;;;;;4918436;29;20199;-75
2022/08/07 09:28:57;;;;;;;5.72;1.00;;;26.30;72.50;;;;;;4917655;29;20680;-76
2022/08/07 09:31:55;;;;;;;1.67;0.75;;;26.40;74.20;;;;;;4901543;29;20195;-77
2022/08/07 09:34:28;;;;;;;1.10;0.60;;;26.00;72.80;;;;;;4917318;29;20242;-75
2022/08/07 09:37:03;;;;;;;2.95;0.90;;;25.40;74.40;;;;;;4917394;29;20192;-78
2022/08/07 09:39:44;;;;;;;1.83;0.80;;;25.20;76.10;;;;;;4901449;29;20523;-77
2022/08/07 09:42:48;;;;;;;7.25;1.50;;;25.20;76.00;;;;;;4901655;29;20224;-77
2022/08/07 09:45:32;;;;;;;3.75;0.95;;;25.60;72.40;;;;;;4886050;29;20214;-78
2022/08/07 09:48:50;;;;;;;1.48;0.85;;;25.90;75.10;;;;;;4901466;29;20206;-80
2022/08/07 09:51:51;;;;;;;2.20;0.90;;;26.20;71.40;;;;;;4905742;29;20191;-78
2022/08/07 09:54:43;;;;;;;8.27;0.88;;;26.80;72.60;;;;;;4901589;29;20191;-77
2022/08/07 09:57:20;;;;;;;5.97;1.10;;;27.20;68.20;;;;;;4917529;29;20636;-78
2022/08/07 10:00:13;;;;;;;0.88;0.55;;;27.30;68.00;;;;;;4918260;29;20199;-78
2022/08/07 10:03:14;;;;;;;2.17;0.80;;;27.70;65.70;;;;;;4900983;29;20760;-77
2022/08/07 10:06:28;;;;;;;1.83;0.73;;;27.70;66.30;;;;;;4901032;29;20195;-77
2022/08/07 10:09:22;;;;;;;3.15;0.90;;;27.80;67.20;;;;;;4901366;29;20208;-77
2022/08/07 10:12:26;;;;;;;3.35;0.80;;;27.90;65.30;;;;;;4911085;29;20203;-80
2022/08/07 10:15:09;;;;;;;1.77;0.90;;;28.20;65.70;;;;;;4901327;29;20212;-75
2022/08/07 10:18:15;;;;;;;1.58;0.73;;;28.30;65.40;;;;;;4901645;29;20203;-75
2022/08/07 10:21:06;;;;;;;3.25;0.70;;;29.00;63.50;;;;;;4936253;29;20203;-74
2022/08/07 10:24:03;;;;;;;1.50;0.75;;;28.60;61.90;;;;;;4900906;29;20196;-78
2022/08/07 10:27:01;;;;;;;2.30;0.77;;;28.90;60.90;;;;;;4933973;29;20199;-76
2022/08/07 10:30:08;;;;;;;3.70;0.88;;;29.30;59.00;;;;;;4936505;29;20198;-76
2022/08/07 10:33:13;;;;;;;1.88;0.70;;;29.30;59.60;;;;;;4919757;29;20643;-77
2022/08/07 10:36:23;;;;;;;2.53;0.90;;;29.00;58.70;;;;;;4919239;29;20226;-77
2022/08/07 10:39:11;;;;;;;1.02;0.70;;;28.70;60.40;;;;;;4840804;29;20258;-78
2022/08/07 10:41:48;;;;;;;6.25;1.40;;;29.50;63.30;;;;;;4841042;29;20300;-79
2022/08/07 10:44:37;;;;;;;1.35;0.70;;;29.70;61.60;;;;;;4826001;29;20242;-80
2022/08/07 10:47:19;;;;;;;0.80;0.60;;;30.10;61.10;;;;;;4841435;29;20673;-82
2022/08/07 10:50:32;;;;;;;2.80;0.73;;;30.40;58.60;;;;;;4824820;29;20202;-76
2022/08/07 10:53:08;;;;;;;3.13;0.68;;;29.90;58.00;;;;;;4822588;29;20225;-79
2022/08/07 10:55:46;;;;;;;5.97;1.15;;;30.10;60.00;;;;;;4836956;29;20203;-82
2022/08/07 10:58:28;;;;;;;2.58;0.85;;;30.60;59.40;;;;;;4838893;29;20202;-76
2022/08/07 11:01:26;;;;;;;3.65;0.98;;;30.50;56.40;;;;;;4839162;29;20209;-78
2022/08/07 11:04:18;;;;;;;3.47;0.80;;;30.70;57.40;;;;;;4825761;29;20231;-81
2022/08/07 11:07:12;;;;;;;1.38;0.70;;;30.80;55.20;;;;;;4824103;29;20283;-76
2022/08/07 11:09:57;;;;;;;3.40;0.68;;;30.60;53.90;;;;;;4822027;29;20194;-82
2022/08/07 11:12:46;;;;;;;5.82;0.77;;;31.30;56.10;;;;;;4838999;29;20262;-80
2022/08/07 11:15:23;;;;;;;0.93;0.70;;;32.00;55.60;;;;;;4827431;29;20247;-80
2022/08/07 11:18:23;;;;;;;2.53;0.73;;;32.10;53.80;;;;;;4917335;29;20202;-80
2022/08/07 11:21:09;;;;;;;7.35;1.00;;;32.00;51.40;;;;;;4905815;29;20724;-83
2022/08/07 11:23:58;;;;;;;1.13;0.77;;;32.20;52.10;;;;;;4917280;29;20656;-83
2022/08/07 11:26:34;;;;;;;1.92;0.77;;;32.20;51.20;;;;;;4932244;29;20197;-82
2022/08/07 11:29:22;;;;;;;0.88;0.50;;;31.90;52.70;;;;;;4915996;29;20274;-81
2022/08/07 11:32:21;;;;;;;1.70;0.68;;;32.00;51.20;;;;;;4917495;29;20191;-83
2022/08/07 11:35:01;;;;;;;1.05;0.70;;;31.90;51.40;;;;;;4908654;29;20560;-80
2022/08/07 11:37:53;;;;;;;1.15;0.70;;;31.70;51.10;;;;;;4915864;29;20199;-83
2022/08/07 11:40:55;;;;;;;1.15;0.60;;;31.70;50.00;;;;;;4914573;29;20191;-81
2022/08/07 11:43:27;;;;;;;3.72;0.93;;;31.70;50.20;;;;;;4913577;29;20293;-77
2022/08/07 11:46:37;;;;;;;0.95;0.40;;;31.00;48.90;;;;;;4917113;29;20206;-75
2022/08/07 11:49:32;;;;;;;4.50;0.80;;;31.00;49.60;;;;;;4913694;29;20202;-77
2022/08/07 11:52:25;;;;;;;3.65;0.70;;;31.50;51.40;;;;;;4918602;29;20205;-80
2022/08/07 11:55:19;;;;;;;2.28;0.70;;;31.80;48.80;;;;;;4918401;29;20191;-81
2022/08/07 11:58:15;;;;;;;1.15;0.60;;;31.70;48.90;;;;;;4933518;29;20685;-77
2022/08/07 12:01:08;;;;;;;4.18;0.70;;;31.50;51.70;;;;;;4934243;29;20549;-78
2022/08/07 12:03:52;;;;;;;0.90;0.60;;;31.70;49.90;;;;;;4915923;29;20219;-78
2022/08/07 12:06:28;;;;;;;1.80;0.85;;;32.20;49.70;;;;;;4917225;29;20297;-78
2022/08/07 12:09:17;;;;;;;2.25;0.50;;;32.70;49.80;;;;;;4929259;29;20251;-81
2022/08/07 12:12:03;;;;;;;1.08;0.55;;;33.20;49.30;;;;;;4934574;29;20202;-81
2022/08/07 12:15:33;;;;;;;1.30;0.57;;;33.20;47.90;;;;;;4915844;29;20215;-80
2022/08/07 12:18:47;;;;;;;1.05;0.40;;;32.90;48.10;;;;;;4839122;29;20226;-77
2022/08/07 12:21:34;;;;;;;0.68;0.50;;;33.00;46.40;;;;;;4860371;29;20225;-82
2022/08/07 12:24:32;;;;;;;0.70;0.50;;;33.30;45.80;;;;;;4846816;29;20195;-88
2022/08/07 12:27:13;;;;;;;0.70;0.40;;;33.70;45.50;;;;;;4846963;29;20201;-76
2022/08/07 12:29:51;;;;;;;1.23;0.50;;;34.00;46.10;;;;;;4846440;29;20202;-79
2022/08/07 12:32:30;;;;;;;1.42;0.70;;;33.40;45.90;;;;;;4859486;29;20584;-76
2022/08/07 12:35:01;;;;;;;0.60;0.40;;;33.50;47.10;;;;;;4832306;29;20252;-76
2022/08/07 12:37:33;;;;;;;1.17;0.50;;;33.70;45.20;;;;;;4828243;29;20237;-76
2022/08/07 12:40:28;;;;;;;0.50;0.40;;;33.60;45.80;;;;;;4841207;29;20206;-76
2022/08/07 12:43:17;;;;;;;0.40;0.40;;;33.50;45.30;;;;;;4842461;29;20390;-77
2022/08/07 12:46:27;;;;;;;0.90;0.60;;;33.70;44.20;;;;;;4843448;29;20202;-79
2022/08/07 12:49:02;;;;;;;0.70;0.50;;;33.80;44.40;;;;;;4886303;29;20654;-78
2022/08/07 12:52:00;;;;;;;1.85;0.70;;;34.00;43.80;;;;;;4919792;29;20248;-78
2022/08/07 12:55:19;;;;;;;0.82;0.50;;;34.00;43.00;;;;;;4902733;29;20211;-79
2022/08/07 12:57:52;;;;;;;1.48;0.55;;;34.30;42.80;;;;;;4918531;29;20222;-79
2022/08/07 13:00:53;;;;;;;0.43;0.40;;;34.20;43.40;;;;;;4902580;29;20199;-79
2022/08/07 13:03:40;;;;;;;2.80;0.57;;;34.00;43.70;;;;;;4887417;29;20229;-78
2022/08/07 13:06:57;;;;;;;0.77;0.50;;;34.10;43.70;;;;;;4902286;29;20199;-78
2022/08/07 13:09:45;;;;;;;15.18;1.75;;;33.90;43.80;;;;;;4902694;29;20234;-78
2022/08/07 13:12:50;;;;;;;2.42;0.60;;;33.40;43.90;;;;;;4902253;29;20191;-78
2022/08/07 13:15:48;;;;;;;0.60;0.40;;;33.60;43.50;;;;;;4902283;29;20231;-79
2022/08/07 13:18:44;;;;;;;1.73;0.50;;;33.60;44.20;;;;;;4902730;29;20206;-79
2022/08/07 13:21:33;;;;;;;1.00;0.60;;;33.90;44.50;;;;;;4918005;29;20219;-78
2022/08/07 13:24:19;;;;;;;1.38;0.45;;;33.90;43.50;;;;;;4902125;29;20195;-77
2022/08/07 13:27:09;;;;;;;0.50;0.50;;;33.50;45.40;;;;;;4902322;29;20208;-76
2022/08/07 13:30:02;;;;;;;1.48;0.50;;;33.60;45.40;;;;;;4902187;29;20237;-77
2022/08/07 13:32:49;;;;;;;1.33;0.60;;;33.70;43.90;;;;;;4902160;29;20202;-75
2022/08/07 13:35:37;;;;;;;1.95;0.55;;;33.60;44.70;;;;;;4902316;29;20303;-77
2022/08/07 13:38:40;;;;;;;1.20;0.57;;;33.80;44.90;;;;;;4902169;29;20196;-76
2022/08/07 13:41:29;;;;;;;1.00;0.50;;;33.60;43.30;;;;;;4901995;29;20196;-77
2022/08/07 13:44:00;;;;;;;1.33;0.50;;;33.40;43.70;;;;;;4901692;29;20590;-79
2022/08/07 13:46:31;;;;;;;1.73;0.65;;;33.60;45.30;;;;;;4902038;29;20214;-79
2022/08/07 13:49:10;;;;;;;0.90;0.50;;;33.90;44.60;;;;;;4901631;29;20677;-79
2022/08/07 13:52:04;;;;;;;2.28;0.68;;;34.10;45.00;;;;;;4901802;29;20196;-76
2022/08/07 13:54:56;;;;;;;1.85;0.50;;;34.40;44.60;;;;;;4901963;29;20214;-80
2022/08/07 13:57:37;;;;;;;0.70;0.40;;;34.40;43.90;;;;;;4902331;29;20231;-79
2022/08/07 14:00:37;;;;;;;1.58;0.50;;;34.40;43.10;;;;;;4918375;29;20202;-79
2022/08/07 14:03:23;;;;;;;2.15;0.63;;;34.20;43.80;;;;;;4901994;29;20305;-78
2022/08/07 14:06:11;;;;;;;2.55;0.73;;;34.60;45.20;;;;;;4917225;29;20199;-77
2022/08/07 14:08:43;;;;;;;1.60;0.63;;;34.50;44.10;;;;;;4901919;29;20290;-78
2022/08/07 14:11:17;;;;;;;1.35;0.57;;;34.70;45.00;;;;;;4917234;29;20297;-78
2022/08/07 14:14:07;;;;;;;3.35;0.60;;;34.10;44.50;;;;;;4916947;29;20209;-77